sensor_id;sensor_type;location;lat;lon;timestamp;pressure;altitude;pressure_sealevel;temperature;humidity
10482;BME280;5288;42.334;23.876;2022-08-19T00:01:33;55899.25;;;-140.56;57.99
10482;BME280;5288;42.334;23.876;2022-08-19T00:04:04;55934.81;;;-140.56;58.35
10482;BME280;5288;42.334;23.876;2022-08-19T00:06:33;55909.13;;;-140.56;58.43
10482;BME280;5288;42.334;23.876;2022-08-19T00:09:02;55938.78;;;-140.56;58.07
10482;BME280;5288;42.334;23.876;2022-08-19T00:11:29;55924.94;;;-140.56;57.93
10482;BME280;5288;42.334;23.876;2022-08-19T00:13:57;55917.03;;;-140.56;58.32
10482;BME280;5288;42.334;23.876;2022-08-19T00:16:25;55905.19;;;-140.56;57.90
10482;BME280;5288;42.334;23.876;2022-08-19T00:18:53;55919.03;;;-140.56;57.60
10482;BME280;5288;42.334;23.876;2022-08-19T00:21:21;55940.75;;;-140.56;57.33
10482;BME280;5288;42.334;23.876;2022-08-19T00:23:48;55942.72;;;-140.56;57.45
10482;BME280;5288;42.334;23.876;2022-08-19T00:26:15;55901.22;;;-140.56;57.64
10482;BME280;5288;42.334;23.876;2022-08-19T00:28:42;55934.81;;;-140.56;57.62
10482;BME280;5288;42.334;23.876;2022-08-19T00:31:10;55913.09;;;-140.56;57.63
10482;BME280;5288;42.334;23.876;2022-08-19T00:33:38;55926.94;;;-140.56;57.43
10482;BME280;5288;42.334;23.876;2022-08-19T00:36:07;55952.63;;;-140.56;57.52
10482;BME280;5288;42.334;23.876;2022-08-19T00:38:37;55921.00;;;-140.56;57.56
10482;BME280;5288;42.334;23.876;2022-08-19T00:41:08;55934.81;;;-140.56;57.72
10482;BME280;5288;42.334;23.876;2022-08-19T00:43:36;55936.81;;;-140.56;57.55
10482;BME280;5288;42.334;23.876;2022-08-19T00:46:04;55926.94;;;-140.56;57.47
10482;BME280;5288;42.334;23.876;2022-08-19T00:48:32;55915.06;;;-140.56;57.28
10482;BME280;5288;42.334;23.876;2022-08-19T00:51:01;55952.63;;;-140.56;57.19
10482;BME280;5288;42.334;23.876;2022-08-19T00:53:30;55944.72;;;-140.56;57.37
10482;BME280;5288;42.334;23.876;2022-08-19T00:56:01;55978.31;;;-140.56;57.56
10482;BME280;5288;42.334;23.876;2022-08-19T00:58:33;55909.13;;;-140.56;57.60
10482;BME280;5288;42.334;23.876;2022-08-19T01:01:02;55930.88;;;-140.56;57.70
10482;BME280;5288;42.334;23.876;2022-08-19T01:03:30;55922.97;;;-140.56;57.64
10482;BME280;5288;42.334;23.876;2022-08-19T01:05:57;55928.91;;;-140.56;57.98
10482;BME280;5288;42.334;23.876;2022-08-19T01:08:26;55926.94;;;-140.56;58.18
10482;BME280;5288;42.334;23.876;2022-08-19T01:10:56;55934.81;;;-140.56;58.36
10482;BME280;5288;42.334;23.876;2022-08-19T01:13:28;55919.03;;;-140.56;58.37
10482;BME280;5288;42.334;23.876;2022-08-19T01:15:57;55934.81;;;-140.56;58.47
10482;BME280;5288;42.334;23.876;2022-08-19T01:18:27;55940.75;;;-140.56;58.71
10482;BME280;5288;42.334;23.876;2022-08-19T01:20:56;55926.94;;;-140.56;58.47
10482;BME280;5288;42.334;23.876;2022-08-19T01:23:27;55924.94;;;-140.56;58.56
10482;BME280;5288;42.334;23.876;2022-08-19T01:26:10;55934.81;;;-140.56;58.86
10482;BME280;5288;42.334;23.876;2022-08-19T01:28:37;55915.06;;;-140.56;58.89
10482;BME280;5288;42.334;23.876;2022-08-19T01:31:08;55938.78;;;-140.56;58.64
10482;BME280;5288;42.334;23.876;2022-08-19T01:33:37;55946.69;;;-140.56;58.88
10482;BME280;5288;42.334;23.876;2022-08-19T01:36:09;55936.81;;;-140.56;59.47
10482;BME280;5288;42.334;23.876;2022-08-19T01:38:41;55976.31;;;-140.56;59.79
10482;BME280;5288;42.334;23.876;2022-08-19T01:41:09;55905.19;;;-140.56;59.83
10482;BME280;5288;42.334;23.876;2022-08-19T01:43:36;55954.59;;;-140.56;59.66
10482;BME280;5288;42.334;23.876;2022-08-19T01:46:03;55968.41;;;-140.56;59.81
10482;BME280;5288;42.334;23.876;2022-08-19T01:48:34;55911.13;;;-140.56;59.84
10482;BME280;5288;42.334;23.876;2022-08-19T01:51:01;55928.91;;;-140.56;59.67
10482;BME280;5288;42.334;23.876;2022-08-19T01:53:29;55950.63;;;-140.56;60.15
10482;BME280;5288;42.334;23.876;2022-08-19T01:55:58;55956.56;;;-140.56;60.33
10482;BME280;5288;42.334;23.876;2022-08-19T01:58:29;55958.53;;;-140.56;60.38
10482;BME280;5288;42.334;23.876;2022-08-19T02:00:57;55940.75;;;-140.56;60.23
10482;BME280;5288;42.334;23.876;2022-08-19T02:03:25;55944.72;;;-140.56;60.03
10482;BME280;5288;42.334;23.876;2022-08-19T02:05:56;55986.22;;;-140.56;59.96
10482;BME280;5288;42.334;23.876;2022-08-19T02:08:25;55976.31;;;-140.56;60.01
10482;BME280;5288;42.334;23.876;2022-08-19T02:10:52;55944.72;;;-140.56;59.59
10482;BME280;5288;42.334;23.876;2022-08-19T02:13:21;55942.72;;;-140.56;59.60
10482;BME280;5288;42.334;23.876;2022-08-19T02:15:48;55970.41;;;-140.56;59.07
10482;BME280;5288;42.334;23.876;2022-08-19T02:18:15;55938.78;;;-140.56;59.14
10482;BME280;5288;42.334;23.876;2022-08-19T02:20:43;55944.72;;;-140.56;59.33
10482;BME280;5288;42.334;23.876;2022-08-19T02:23:13;55950.63;;;-140.56;59.37
10482;BME280;5288;42.334;23.876;2022-08-19T02:25:41;55919.03;;;-140.56;59.12
10482;BME280;5288;42.334;23.876;2022-08-19T02:28:09;55958.53;;;-140.56;59.02
10482;BME280;5288;42.334;23.876;2022-08-19T02:30:38;55930.88;;;-140.56;59.23
10482;BME280;5288;42.334;23.876;2022-08-19T02:33:06;55950.63;;;-140.56;58.94
10482;BME280;5288;42.334;23.876;2022-08-19T02:35:34;55919.03;;;-140.56;58.99
10482;BME280;5288;42.334;23.876;2022-08-19T02:38:01;55942.72;;;-140.56;59.36
10482;BME280;5288;42.334;23.876;2022-08-19T02:40:48;55964.47;;;-140.56;59.44
10482;BME280;5288;42.334;23.876;2022-08-19T02:43:17;55922.97;;;-140.56;59.38
10482;BME280;5288;42.334;23.876;2022-08-19T02:45:48;55926.94;;;-140.56;59.88
10482;BME280;5288;42.334;23.876;2022-08-19T02:48:15;55978.31;;;-140.56;59.97
10482;BME280;5288;42.334;23.876;2022-08-19T02:50:44;55974.34;;;-140.56;59.73
10482;BME280;5288;42.334;23.876;2022-08-19T02:53:11;55932.84;;;-140.56;59.80
10482;BME280;5288;42.334;23.876;2022-08-19T02:55:43;55952.63;;;-140.56;59.79
10482;BME280;5288;42.334;23.876;2022-08-19T02:58:11;55938.78;;;-140.56;59.72
10482;BME280;5288;42.334;23.876;2022-08-19T03:00:43;55990.16;;;-140.56;59.79
10482;BME280;5288;42.334;23.876;2022-08-19T03:03:11;55970.41;;;-140.56;59.72
10482;BME280;5288;42.334;23.876;2022-08-19T03:05:39;55978.31;;;-140.56;59.65
10482;BME280;5288;42.334;23.876;2022-08-19T03:08:08;55946.69;;;-140.56;60.68
10482;BME280;5288;42.334;23.876;2022-08-19T03:10:42;55984.22;;;-140.56;60.56
10482;BME280;5288;42.334;23.876;2022-08-19T03:13:12;55976.31;;;-140.56;60.67
10482;BME280;5288;42.334;23.876;2022-08-19T03:15:41;55930.88;;;-140.56;60.91
10482;BME280;5288;42.334;23.876;2022-08-19T03:18:09;55982.25;;;-140.56;60.95
10482;BME280;5288;42.334;23.876;2022-08-19T03:20:42;55964.47;;;-140.56;61.09
10482;BME280;5288;42.334;23.876;2022-08-19T03:23:10;55982.25;;;-140.56;61.23
10482;BME280;5288;42.334;23.876;2022-08-19T03:25:38;55919.03;;;-140.56;61.54
10482;BME280;5288;42.334;23.876;2022-08-19T03:28:09;55988.19;;;-140.56;61.78
10482;BME280;5288;42.334;23.876;2022-08-19T03:30:37;55976.31;;;-140.56;61.97
10482;BME280;5288;42.334;23.876;2022-08-19T03:33:06;55972.38;;;-140.56;62.01
10482;BME280;5288;42.334;23.876;2022-08-19T03:35:34;55954.59;;;-140.56;62.00
10482;BME280;5288;42.334;23.876;2022-08-19T03:38:03;55980.28;;;-140.56;61.67
10482;BME280;5288;42.334;23.876;2022-08-19T03:40:31;55972.38;;;-140.56;61.42
10482;BME280;5288;42.334;23.876;2022-08-19T03:42:58;55992.13;;;-140.56;61.21
10482;BME280;5288;42.334;23.876;2022-08-19T03:45:26;55970.41;;;-140.56;61.18
10482;BME280;5288;42.334;23.876;2022-08-19T03:47:53;55952.63;;;-140.56;60.71
10482;BME280;5288;42.334;23.876;2022-08-19T03:50:20;55974.34;;;-140.56;60.46
10482;BME280;5288;42.334;23.876;2022-08-19T03:52:48;55919.03;;;-140.56;60.10
10482;BME280;5288;42.334;23.876;2022-08-19T03:55:18;55950.63;;;-140.56;59.82
10482;BME280;5288;42.334;23.876;2022-08-19T03:57:45;55952.63;;;-140.56;59.87
10482;BME280;5288;42.334;23.876;2022-08-19T04:00:14;55940.75;;;-140.56;59.88
10482;BME280;5288;42.334;23.876;2022-08-19T04:02:42;55926.94;;;-140.56;59.79
10482;BME280;5288;42.334;23.876;2022-08-19T04:05:09;55940.75;;;-140.56;60.07
10482;BME280;5288;42.334;23.876;2022-08-19T04:07:36;55984.22;;;-140.56;60.19
10482;BME280;5288;42.334;23.876;2022-08-19T04:10:04;55978.31;;;-140.56;60.16
10482;BME280;5288;42.334;23.876;2022-08-19T04:12:33;55972.38;;;-140.56;60.11
10482;BME280;5288;42.334;23.876;2022-08-19T04:15:00;55968.41;;;-140.56;60.02
10482;BME280;5288;42.334;23.876;2022-08-19T04:17:27;55970.41;;;-140.56;60.30
10482;BME280;5288;42.334;23.876;2022-08-19T04:19:54;55954.59;;;-140.56;60.37
10482;BME280;5288;42.334;23.876;2022-08-19T04:22:21;55950.63;;;-140.56;60.49
10482;BME280;5288;42.334;23.876;2022-08-19T04:24:48;55948.66;;;-140.56;60.17
10482;BME280;5288;42.334;23.876;2022-08-19T04:27:16;55978.31;;;-140.56;60.32
10482;BME280;5288;42.334;23.876;2022-08-19T04:29:46;55952.63;;;-140.56;60.30
10482;BME280;5288;42.334;23.876;2022-08-19T04:32:13;55930.88;;;-140.56;59.72
10482;BME280;5288;42.334;23.876;2022-08-19T04:34:41;55950.63;;;-140.56;59.91
10482;BME280;5288;42.334;23.876;2022-08-19T04:37:08;55948.66;;;-140.56;60.36
10482;BME280;5288;42.334;23.876;2022-08-19T04:39:39;55938.78;;;-140.56;59.83
10482;BME280;5288;42.334;23.876;2022-08-19T04:42:23;55952.63;;;-140.56;59.64
10482;BME280;5288;42.334;23.876;2022-08-19T04:45:09;55954.59;;;-140.56;59.77
10482;BME280;5288;42.334;23.876;2022-08-19T04:47:37;55946.69;;;-140.56;59.95
10482;BME280;5288;42.334;23.876;2022-08-19T04:50:05;55934.81;;;-140.56;59.87
10482;BME280;5288;42.334;23.876;2022-08-19T04:52:36;55919.03;;;-140.56;60.08
10482;BME280;5288;42.334;23.876;2022-08-19T04:55:09;55938.78;;;-140.56;60.46
10482;BME280;5288;42.334;23.876;2022-08-19T04:57:36;55968.41;;;-140.56;60.48
10482;BME280;5288;42.334;23.876;2022-08-19T05:00:08;55958.53;;;-140.56;59.93
10482;BME280;5288;42.334;23.876;2022-08-19T05:02:35;55948.66;;;-140.56;59.25
10482;BME280;5288;42.334;23.876;2022-08-19T05:05:03;55938.78;;;-140.56;59.37
10482;BME280;5288;42.334;23.876;2022-08-19T05:07:32;55954.59;;;-140.56;59.20
10482;BME280;5288;42.334;23.876;2022-08-19T05:09:59;55950.63;;;-140.56;58.97
10482;BME280;5288;42.334;23.876;2022-08-19T05:12:26;55934.81;;;-140.56;58.76
10482;BME280;5288;42.334;23.876;2022-08-19T05:14:54;55940.75;;;-140.56;59.50
10482;BME280;5288;42.334;23.876;2022-08-19T05:17:23;55899.25;;;-140.56;58.76
10482;BME280;5288;42.334;23.876;2022-08-19T05:19:51;55954.59;;;-140.56;58.62
10482;BME280;5288;42.334;23.876;2022-08-19T05:22:35;55936.81;;;-140.56;58.72
10482;BME280;5288;42.334;23.876;2022-08-19T05:25:05;55944.72;;;-140.56;58.21
10482;BME280;5288;42.334;23.876;2022-08-19T05:27:32;55913.09;;;-140.56;58.47
10482;BME280;5288;42.334;23.876;2022-08-19T05:30:00;55946.69;;;-140.56;58.25
10482;BME280;5288;42.334;23.876;2022-08-19T05:32:28;55932.84;;;-140.56;58.12
10482;BME280;5288;42.334;23.876;2022-08-19T05:34:56;55926.94;;;-140.56;57.93
10482;BME280;5288;42.334;23.876;2022-08-19T05:37:23;55917.03;;;-140.56;57.85
10482;BME280;5288;42.334;23.876;2022-08-19T05:39:52;55911.13;;;-140.56;57.70
10482;BME280;5288;42.334;23.876;2022-08-19T05:42:20;55907.16;;;-140.56;57.24
10482;BME280;5288;42.334;23.876;2022-08-19T05:44:47;55911.13;;;-140.56;56.23
10482;BME280;5288;42.334;23.876;2022-08-19T05:47:15;55857.75;;;-140.56;56.38
10482;BME280;5288;42.334;23.876;2022-08-19T05:49:47;55895.31;;;-140.56;55.47
10482;BME280;5288;42.334;23.876;2022-08-19T05:52:17;55938.78;;;-140.56;55.52
10482;BME280;5288;42.334;23.876;2022-08-19T05:54:44;55881.47;;;-140.56;54.73
10482;BME280;5288;42.334;23.876;2022-08-19T05:57:14;55903.22;;;-140.56;55.01
10482;BME280;5288;42.334;23.876;2022-08-19T05:59:41;55881.47;;;-140.56;54.37
10482;BME280;5288;42.334;23.876;2022-08-19T06:02:11;55897.28;;;-140.56;54.44
10482;BME280;5288;42.334;23.876;2022-08-19T06:04:39;55899.25;;;-140.56;54.40
10482;BME280;5288;42.334;23.876;2022-08-19T06:07:09;55845.91;;;-140.56;52.75
10482;BME280;5288;42.334;23.876;2022-08-19T06:09:36;55851.84;;;-140.56;53.10
10482;BME280;5288;42.334;23.876;2022-08-19T06:12:05;55845.91;;;-140.56;52.59
10482;BME280;5288;42.334;23.876;2022-08-19T06:14:34;55869.63;;;-140.56;52.08
10482;BME280;5288;42.334;23.876;2022-08-19T06:17:02;55824.16;;;-140.56;51.39
10482;BME280;5288;42.334;23.876;2022-08-19T06:19:30;55812.31;;;-140.56;51.35
10482;BME280;5288;42.334;23.876;2022-08-19T06:21:58;55849.84;;;-140.56;50.76
10482;BME280;5288;42.334;23.876;2022-08-19T06:24:28;55800.47;;;-140.56;49.94
10482;BME280;5288;42.334;23.876;2022-08-19T06:26:58;55782.66;;;-140.56;49.89
10482;BME280;5288;42.334;23.876;2022-08-19T06:29:26;55800.47;;;-140.56;48.87
10482;BME280;5288;42.334;23.876;2022-08-19T06:31:57;55824.16;;;-140.56;48.56
10482;BME280;5288;42.334;23.876;2022-08-19T06:34:25;55810.34;;;-140.56;47.58
10482;BME280;5288;42.334;23.876;2022-08-19T06:36:53;55790.56;;;-140.56;47.62
10482;BME280;5288;42.334;23.876;2022-08-19T06:39:24;55770.81;;;-140.56;47.21
10482;BME280;5288;42.334;23.876;2022-08-19T06:41:56;55772.78;;;-140.56;47.23
10482;BME280;5288;42.334;23.876;2022-08-19T06:44:25;55782.66;;;-140.56;46.74
10482;BME280;5288;42.334;23.876;2022-08-19T06:46:54;55768.84;;;-140.56;46.49
10482;BME280;5288;42.334;23.876;2022-08-19T06:49:22;55764.88;;;-140.56;45.82
10482;BME280;5288;42.334;23.876;2022-08-19T06:51:49;55766.88;;;-140.56;45.88
10482;BME280;5288;42.334;23.876;2022-08-19T06:54:18;55749.06;;;-140.56;45.16
10482;BME280;5288;42.334;23.876;2022-08-19T06:56:46;55774.75;;;-140.56;45.19
10482;BME280;5288;42.334;23.876;2022-08-19T06:59:16;55751.06;;;-140.56;44.95
10482;BME280;5288;42.334;23.876;2022-08-19T07:01:45;55756.97;;;-140.56;44.26
10482;BME280;5288;42.334;23.876;2022-08-19T07:04:14;55745.13;;;-140.56;44.68
10482;BME280;5288;42.334;23.876;2022-08-19T07:06:42;55741.19;;;-140.56;43.38
10482;BME280;5288;42.334;23.876;2022-08-19T07:09:12;55745.13;;;-140.56;43.84
10482;BME280;5288;42.334;23.876;2022-08-19T07:11:44;55707.59;;;-140.56;43.43
10482;BME280;5288;42.334;23.876;2022-08-19T07:14:12;55743.16;;;-140.56;42.17
10482;BME280;5288;42.334;23.876;2022-08-19T07:16:41;55705.59;;;-140.56;41.76
10482;BME280;5288;42.334;23.876;2022-08-19T07:19:08;55715.50;;;-140.56;42.99
10482;BME280;5288;42.334;23.876;2022-08-19T07:21:36;55717.47;;;-140.56;41.89
10482;BME280;5288;42.334;23.876;2022-08-19T07:24:04;55687.81;;;-140.56;40.82
10482;BME280;5288;42.334;23.876;2022-08-19T07:26:33;55701.66;;;-140.56;41.00
10482;BME280;5288;42.334;23.876;2022-08-19T07:29:01;55703.63;;;-140.56;40.79
10482;BME280;5288;42.334;23.876;2022-08-19T07:31:28;55717.47;;;-140.56;41.37
10482;BME280;5288;42.334;23.876;2022-08-19T07:33:57;55672.00;;;-140.56;41.43
10482;BME280;5288;42.334;23.876;2022-08-19T07:36:27;55670.03;;;-140.56;40.60
10482;BME280;5288;42.334;23.876;2022-08-19T07:38:59;55683.88;;;-140.56;39.75
10482;BME280;5288;42.334;23.876;2022-08-19T07:41:28;55679.91;;;-140.56;39.93
10482;BME280;5288;42.334;23.876;2022-08-19T07:43:57;55656.22;;;-140.56;39.85
10482;BME280;5288;42.334;23.876;2022-08-19T07:46:29;55654.22;;;-140.56;39.54
10482;BME280;5288;42.334;23.876;2022-08-19T07:48:58;55674.00;;;-140.56;38.01
10482;BME280;5288;42.334;23.876;2022-08-19T07:51:27;55666.09;;;-140.56;37.98
10482;BME280;5288;42.334;23.876;2022-08-19T07:53:54;55648.31;;;-140.56;38.17
10482;BME280;5288;42.334;23.876;2022-08-19T07:56:23;55658.19;;;-140.56;37.92
10482;BME280;5288;42.334;23.876;2022-08-19T07:58:52;55642.38;;;-140.56;39.01
10482;BME280;5288;42.334;23.876;2022-08-19T08:01:21;55638.41;;;-140.56;37.11
10482;BME280;5288;42.334;23.876;2022-08-19T08:03:51;55628.53;;;-140.56;38.12
10482;BME280;5288;42.334;23.876;2022-08-19T08:06:37;55600.88;;;-140.56;37.66
10482;BME280;5288;42.334;23.876;2022-08-19T08:09:24;55592.97;;;-140.56;37.84
10482;BME280;5288;42.334;23.876;2022-08-19T08:11:54;55612.75;;;-140.56;37.17
10482;BME280;5288;42.334;23.876;2022-08-19T08:14:24;55612.75;;;-140.56;35.68
10482;BME280;5288;42.334;23.876;2022-08-19T08:16:53;55598.91;;;-140.56;35.02
10482;BME280;5288;42.334;23.876;2022-08-19T08:19:21;55575.19;;;-140.56;35.37
10482;BME280;5288;42.334;23.876;2022-08-19T08:21:51;55600.88;;;-140.56;35.34
10482;BME280;5288;42.334;23.876;2022-08-19T08:24:18;55551.47;;;-140.56;34.60
10482;BME280;5288;42.334;23.876;2022-08-19T08:26:46;55583.09;;;-140.56;34.98
10482;BME280;5288;42.334;23.876;2022-08-19T08:29:13;55581.13;;;-140.56;34.73
10482;BME280;5288;42.334;23.876;2022-08-19T08:31:42;55545.56;;;-140.56;34.10
10482;BME280;5288;42.334;23.876;2022-08-19T08:34:11;55596.94;;;-140.56;33.10
10482;BME280;5288;42.334;23.876;2022-08-19T08:36:44;55571.25;;;-140.56;33.45
10482;BME280;5288;42.334;23.876;2022-08-19T08:39:14;55549.50;;;-140.56;32.84
10482;BME280;5288;42.334;23.876;2022-08-19T08:41:47;55553.47;;;-140.56;33.72
10482;BME280;5288;42.334;23.876;2022-08-19T08:44:22;55541.59;;;-140.56;32.57
10482;BME280;5288;42.334;23.876;2022-08-19T08:46:53;55539.63;;;-140.56;31.61
10482;BME280;5288;42.334;23.876;2022-08-19T08:49:31;55545.56;;;-140.56;31.79
10482;BME280;5288;42.334;23.876;2022-08-19T08:52:05;55529.75;;;-140.56;31.19
10482;BME280;5288;42.334;23.876;2022-08-19T08:54:37;55549.50;;;-140.56;31.60
10482;BME280;5288;42.334;23.876;2022-08-19T08:57:10;55513.94;;;-140.56;31.46
10482;BME280;5288;42.334;23.876;2022-08-19T08:59:41;55500.09;;;-140.56;31.12
10482;BME280;5288;42.334;23.876;2022-08-19T09:02:10;55502.09;;;-140.56;29.85
10482;BME280;5288;42.334;23.876;2022-08-19T09:04:37;55488.25;;;-140.56;31.25
10482;BME280;5288;42.334;23.876;2022-08-19T09:07:25;55511.97;;;-140.56;29.97
10482;BME280;5288;42.334;23.876;2022-08-19T09:10:01;55474.41;;;-140.56;30.27
10482;BME280;5288;42.334;23.876;2022-08-19T09:12:36;55500.09;;;-140.56;30.23
10482;BME280;5288;42.334;23.876;2022-08-19T09:15:07;55513.94;;;-140.56;29.40
10482;BME280;5288;42.334;23.876;2022-08-19T09:17:36;55460.59;;;-140.56;29.35
10482;BME280;5288;42.334;23.876;2022-08-19T09:22:40;55494.19;;;-140.56;28.75
10482;BME280;5288;42.334;23.876;2022-08-19T09:25:12;55490.22;;;-140.56;28.84
10482;BME280;5288;42.334;23.876;2022-08-19T09:27:41;55466.53;;;-140.56;29.41
10482;BME280;5288;42.334;23.876;2022-08-19T09:30:12;55486.28;;;-140.56;28.90
10482;BME280;5288;42.334;23.876;2022-08-19T09:32:39;55496.16;;;-140.56;28.69
10482;BME280;5288;42.334;23.876;2022-08-19T09:35:08;55511.97;;;-140.56;29.24
10482;BME280;5288;42.334;23.876;2022-08-19T09:37:36;55468.50;;;-140.56;31.09
10482;BME280;5288;42.334;23.876;2022-08-19T09:40:04;55486.28;;;-140.56;30.29
10482;BME280;5288;42.334;23.876;2022-08-19T09:42:33;55436.88;;;-140.56;29.72
10482;BME280;5288;42.334;23.876;2022-08-19T09:45:03;55444.78;;;-140.56;29.07
10482;BME280;5288;42.334;23.876;2022-08-19T09:47:30;55442.81;;;-140.56;29.24
10482;BME280;5288;42.334;23.876;2022-08-19T09:49:57;55460.59;;;-140.56;30.39
10482;BME280;5288;42.334;23.876;2022-08-19T09:52:25;55430.94;;;-140.56;28.38
10482;BME280;5288;42.334;23.876;2022-08-19T09:54:52;55448.72;;;-140.56;29.45
10482;BME280;5288;42.334;23.876;2022-08-19T09:57:19;55432.94;;;-140.56;28.81
10482;BME280;5288;42.334;23.876;2022-08-19T09:59:48;55432.94;;;-140.56;28.35
10482;BME280;5288;42.334;23.876;2022-08-19T10:02:15;55444.78;;;-140.56;29.21
10482;BME280;5288;42.334;23.876;2022-08-19T10:04:42;55442.81;;;-140.56;28.08
10482;BME280;5288;42.334;23.876;2022-08-19T10:07:26;55440.84;;;-140.56;27.40
10482;BME280;5288;42.334;23.876;2022-08-19T10:09:53;55442.81;;;-140.56;28.22
10482;BME280;5288;42.334;23.876;2022-08-19T10:12:20;55397.38;;;-140.56;28.02
10482;BME280;5288;42.334;23.876;2022-08-19T10:14:49;55428.97;;;-140.56;28.68
10482;BME280;5288;42.334;23.876;2022-08-19T10:17:17;55411.19;;;-140.56;27.60
10482;BME280;5288;42.334;23.876;2022-08-19T10:19:44;55460.59;;;-140.56;27.38
10482;BME280;5288;42.334;23.876;2022-08-19T10:22:11;55464.53;;;-140.56;27.52
10482;BME280;5288;42.334;23.876;2022-08-19T10:24:39;55450.72;;;-140.56;28.12
10482;BME280;5288;42.334;23.876;2022-08-19T10:27:06;55432.94;;;-140.56;27.39
10482;BME280;5288;42.334;23.876;2022-08-19T10:29:35;55411.19;;;-140.56;27.40
10482;BME280;5288;42.334;23.876;2022-08-19T10:32:07;55427.00;;;-140.56;27.15
10482;BME280;5288;42.334;23.876;2022-08-19T10:34:36;55425.03;;;-140.56;26.99
10482;BME280;5288;42.334;23.876;2022-08-19T10:37:06;55415.16;;;-140.56;27.72
10482;BME280;5288;42.334;23.876;2022-08-19T10:39:36;55391.44;;;-140.56;26.74
10482;BME280;5288;42.334;23.876;2022-08-19T10:42:05;55440.84;;;-140.56;27.10
10482;BME280;5288;42.334;23.876;2022-08-19T10:44:32;55452.69;;;-140.56;27.48
10482;BME280;5288;42.334;23.876;2022-08-19T10:47:01;55425.03;;;-140.56;26.66
10482;BME280;5288;42.334;23.876;2022-08-19T10:49:30;55421.06;;;-140.56;27.54
10482;BME280;5288;42.334;23.876;2022-08-19T10:52:18;55409.22;;;-140.56;26.68
10482;BME280;5288;42.334;23.876;2022-08-19T10:54:59;55397.38;;;-140.56;26.87
10482;BME280;5288;42.334;23.876;2022-08-19T10:57:44;55427.00;;;-140.56;26.52
10482;BME280;5288;42.334;23.876;2022-08-19T11:00:12;55411.19;;;-140.56;26.16
10482;BME280;5288;42.334;23.876;2022-08-19T11:02:40;55401.31;;;-140.56;26.65
10482;BME280;5288;42.334;23.876;2022-08-19T11:05:10;55399.34;;;-140.56;26.70
10482;BME280;5288;42.334;23.876;2022-08-19T11:07:38;55393.41;;;-140.56;26.39
10482;BME280;5288;42.334;23.876;2022-08-19T11:10:06;55403.28;;;-140.56;26.47
10482;BME280;5288;42.334;23.876;2022-08-19T11:12:36;55385.50;;;-140.56;26.73
10482;BME280;5288;42.334;23.876;2022-08-19T11:15:05;55371.69;;;-140.56;25.68
10482;BME280;5288;42.334;23.876;2022-08-19T11:17:33;55379.59;;;-140.56;25.97
10482;BME280;5288;42.334;23.876;2022-08-19T11:20:01;55371.69;;;-140.56;26.88
10482;BME280;5288;42.334;23.876;2022-08-19T11:22:32;55389.47;;;-140.56;25.51
10482;BME280;5288;42.334;23.876;2022-08-19T11:24:59;55344.00;;;-140.56;26.09
10482;BME280;5288;42.334;23.876;2022-08-19T11:27:26;55377.59;;;-140.56;25.87
10482;BME280;5288;42.334;23.876;2022-08-19T11:29:54;55346.00;;;-140.56;24.78
10482;BME280;5288;42.334;23.876;2022-08-19T11:32:21;55361.81;;;-140.56;25.71
10482;BME280;5288;42.334;23.876;2022-08-19T11:34:48;55373.66;;;-140.56;27.37
10482;BME280;5288;42.334;23.876;2022-08-19T11:37:15;55361.81;;;-140.56;25.92
10482;BME280;5288;42.334;23.876;2022-08-19T11:39:44;55369.69;;;-140.56;26.02
10482;BME280;5288;42.334;23.876;2022-08-19T11:42:11;55355.88;;;-140.56;26.10
10482;BME280;5288;42.334;23.876;2022-08-19T11:44:56;55338.09;;;-140.56;25.82
10482;BME280;5288;42.334;23.876;2022-08-19T11:47:23;55328.22;;;-140.56;25.92
10482;BME280;5288;42.334;23.876;2022-08-19T11:49:51;55310.44;;;-140.56;25.66
10482;BME280;5288;42.334;23.876;2022-08-19T11:52:19;55320.31;;;-140.56;25.45
10482;BME280;5288;42.334;23.876;2022-08-19T11:54:47;55324.25;;;-140.56;26.47
10482;BME280;5288;42.334;23.876;2022-08-19T11:57:14;55344.00;;;-140.56;25.97
10482;BME280;5288;42.334;23.876;2022-08-19T11:59:42;55336.13;;;-140.56;26.03
10482;BME280;5288;42.334;23.876;2022-08-19T12:02:13;55346.00;;;-140.56;25.64
10482;BME280;5288;42.334;23.876;2022-08-19T12:04:41;55369.69;;;-140.56;25.53
10482;BME280;5288;42.334;23.876;2022-08-19T12:07:08;55361.81;;;-140.56;26.33
10482;BME280;5288;42.334;23.876;2022-08-19T12:09:36;55338.09;;;-140.56;25.71
10482;BME280;5288;42.334;23.876;2022-08-19T12:12:07;55330.19;;;-140.56;25.35
10482;BME280;5288;42.334;23.876;2022-08-19T12:14:35;55365.75;;;-140.56;25.74
10482;BME280;5288;42.334;23.876;2022-08-19T12:17:02;55324.25;;;-140.56;26.16
10482;BME280;5288;42.334;23.876;2022-08-19T12:19:33;55330.19;;;-140.56;25.55
10482;BME280;5288;42.334;23.876;2022-08-19T12:22:06;55349.94;;;-140.56;25.99
10482;BME280;5288;42.334;23.876;2022-08-19T12:24:38;55290.66;;;-140.56;25.07
10482;BME280;5288;42.334;23.876;2022-08-19T12:27:07;55342.03;;;-140.56;25.06
10482;BME280;5288;42.334;23.876;2022-08-19T12:29:36;55278.81;;;-140.56;25.24
10482;BME280;5288;42.334;23.876;2022-08-19T12:32:03;55292.66;;;-140.56;24.85
10482;BME280;5288;42.334;23.876;2022-08-19T12:34:31;55302.53;;;-140.56;25.55
10482;BME280;5288;42.334;23.876;2022-08-19T12:37:01;55302.53;;;-140.56;25.03
10482;BME280;5288;42.334;23.876;2022-08-19T12:39:28;55324.25;;;-140.56;25.24
10482;BME280;5288;42.334;23.876;2022-08-19T12:41:57;55338.09;;;-140.56;25.88
10482;BME280;5288;42.334;23.876;2022-08-19T12:44:26;55308.44;;;-140.56;25.57
10482;BME280;5288;42.334;23.876;2022-08-19T12:46:53;55314.38;;;-140.56;26.33
10482;BME280;5288;42.334;23.876;2022-08-19T12:49:20;55314.38;;;-140.56;26.18
10482;BME280;5288;42.334;23.876;2022-08-19T12:51:48;55306.47;;;-140.56;25.11
10482;BME280;5288;42.334;23.876;2022-08-19T12:54:18;55294.63;;;-140.56;25.24